KCAO/CAO METAR and TAF weather

Enter ICAO airport designator
Station Type Date Time Source
KCAO METAR 2018/07/16 23:55 UTC NOAA

KCAO 162355Z AUTO 00000KT 10SM CLR 26/14 A3017 RMK AO2 LTG DSNT S SLP147 T02610144 10311 20256 56006


Station Type Date Time Source
KCAO Decoded METAR 2018/07/16 23:55 UTC NOAA

CLAYTON MUNICIPAL AIRPARK, NM, United States (KCAO) 36-27N 103-09W 1514M
Jul 16, 2018 - 07:55 PM EDT / 2018.07.16 2355 UTC
Wind: Calm:0
Visibility: 10 mile(s):0
Sky conditions: clear
Weather: Lightning observed
Temperature: 79.0 F (26.1 C)
Dew Point: 57.9 F (14.4 C)
Relative Humidity: 48%
Pressure (altimeter): 30.17 in. Hg (1021 hPa)
Pressure tendency: 0.02 inches (0.6 hPa) lower than three hours ago
ob: KCAO 162355Z AUTO 00000KT 10SM CLR 26/14 A3017 RMK AO2 LTG DSNT S SLP147 T02610144 10311 20256 56006
cycle: 0

Station Type Date Time Source
KCAO TAF UTC NOAA

Error!


Example: see airport list